Time;durP1;ratioP1;P1;durP2;ratioP2;P2;SDS_P1;SDS_P2;PMS_P1;PMS_P2;Temp;Humidity;BMP_temperature;BMP_pressure;BME280_temperature;BME280_humidity;BME280_pressure;Samples;Min_cycle;Max_cycle;Signal;HPM_P1;HPM_P2
2023/06/07 00:00:49;;;;;;;2.53;2.42;;;;;;;;;;4943056;28;20446;-75
2023/06/07 00:03:17;;;;;;;2.85;2.67;;;;;;;;;;4935657;28;20062;-75
2023/06/07 00:05:45;;;;;;;2.50;2.40;;;;;;;;;;4945272;28;20152;-75
2023/06/07 00:08:12;;;;;;;2.78;2.60;;;;;;;;;;4945552;28;20624;-75
2023/06/07 00:10:40;;;;;;;3.17;2.65;;;;;;;;;;4935369;28;20334;-76
2023/06/07 00:13:07;;;;;;;2.78;2.58;;;;;;;;;;4944281;28;20050;-75
2023/06/07 00:15:34;;;;;;;2.80;2.60;;;;;;;;;;4942713;28;20070;-76
2023/06/07 00:18:02;;;;;;;2.60;2.50;;;;;;;;;;4944625;28;20051;-75
2023/06/07 00:20:30;;;;;;;2.05;1.95;;;;;;;;;;4939922;28;20055;-75
2023/06/07 00:22:58;;;;;;;2.67;2.47;;;;;;;;;;4945521;28;20386;-75
2023/06/07 00:25:26;;;;;;;2.30;2.20;;;;;;;;;;4945776;28;20047;-75
2023/06/07 00:27:54;;;;;;;2.35;2.15;;;;;;;;;;4945285;28;20156;-75
2023/06/07 00:30:21;;;;;;;2.35;2.25;;;;;;;;;;4945428;28;20154;-76
2023/06/07 00:32:49;;;;;;;4.82;2.42;;;;;;;;;;4944756;29;20048;-76
2023/06/07 00:35:16;;;;;;;2.30;2.20;;;;;;;;;;4939598;28;20064;-76
2023/06/07 00:37:44;;;;;;;2.25;2.15;;;;;;;;;;4946936;28;20110;-76
2023/06/07 00:40:12;;;;;;;2.20;2.10;;;;;;;;;;4942823;28;20453;-76
2023/06/07 00:42:40;;;;;;;2.47;2.38;;;;;;;;;;4942885;28;20130;-75
2023/06/07 00:45:07;;;;;;;3.10;2.90;;;;;;;;;;4947170;28;20580;-75
2023/06/07 00:47:38;;;;;;;4.28;2.90;;;;;;;;;;4946154;28;20075;-76
2023/06/07 00:50:06;;;;;;;2.80;2.60;;;;;;;;;;4944584;28;20052;-76
2023/06/07 00:52:35;;;;;;;2.75;2.55;;;;;;;;;;4948324;28;20430;-76
2023/06/07 00:55:06;;;;;;;2.80;2.60;;;;;;;;;;4943977;28;20051;-76
2023/06/07 00:57:35;;;;;;;2.78;2.60;;;;;;;;;;4954921;28;20043;-76
2023/06/07 01:00:09;;;;;;;3.80;2.60;;;;;;;;;;4947598;28;20047;-75
2023/06/07 01:02:37;;;;;;;2.97;2.70;;;;;;;;;;4950021;28;20126;-75
2023/06/07 01:05:05;;;;;;;2.67;2.47;;;;;;;;;;4948362;28;20102;-76
2023/06/07 01:07:33;;;;;;;2.70;2.53;;;;;;;;;;4947417;28;20074;-76
2023/06/07 01:10:02;;;;;;;2.70;2.60;;;;;;;;;;4938358;28;20090;-75
2023/06/07 01:12:30;;;;;;;2.95;2.75;;;;;;;;;;4952253;28;20279;-75
2023/06/07 01:14:59;;;;;;;2.53;2.33;;;;;;;;;;4951591;28;20086;-76
2023/06/07 01:17:28;;;;;;;3.28;2.63;;;;;;;;;;4949330;28;20050;-75
2023/06/07 01:19:58;;;;;;;2.47;2.28;;;;;;;;;;4941895;28;20474;-76
2023/06/07 01:22:27;;;;;;;2.58;2.38;;;;;;;;;;4947953;28;20108;-75
2023/06/07 01:24:56;;;;;;;3.20;3.00;;;;;;;;;;4942382;28;20290;-75
2023/06/07 01:27:27;;;;;;;3.10;2.90;;;;;;;;;;4945374;28;20043;-75
2023/06/07 01:29:59;;;;;;;2.50;2.33;;;;;;;;;;4942495;28;20570;-75
2023/06/07 01:32:27;;;;;;;2.80;2.60;;;;;;;;;;4946358;28;20471;-75
2023/06/07 01:34:54;;;;;;;3.08;2.88;;;;;;;;;;4938221;28;20098;-76
2023/06/07 01:37:22;;;;;;;3.00;2.80;;;;;;;;;;4946121;28;20050;-76
2023/06/07 01:39:51;;;;;;;3.33;3.03;;;;;;;;;;4950149;28;20055;-76
2023/06/07 01:42:19;;;;;;;3.15;2.92;;;;;;;;;;4946860;28;20403;-76
2023/06/07 01:44:47;;;;;;;3.15;2.85;;;;;;;;;;4945933;28;20409;-75
2023/06/07 01:47:14;;;;;;;3.13;2.92;;;;;;;;;;4949505;28;20055;-76
2023/06/07 01:49:42;;;;;;;2.58;2.40;;;;;;;;;;4940208;28;20062;-75
2023/06/07 01:52:10;;;;;;;2.80;2.60;;;;;;;;;;4942399;28;20052;-75
2023/06/07 01:54:39;;;;;;;3.33;2.92;;;;;;;;;;4944461;28;21560;-75
2023/06/07 01:57:12;;;;;;;3.53;2.60;;;;;;;;;;4944698;28;20059;-76
2023/06/07 01:59:40;;;;;;;3.40;2.95;;;;;;;;;;4942674;28;20043;-76
2023/06/07 02:02:18;;;;;;;2.78;2.53;;;;;;;;;;4944321;28;20150;-76
2023/06/07 02:04:48;;;;;;;2.88;2.67;;;;;;;;;;4943735;28;20481;-76
2023/06/07 02:07:22;;;;;;;3.55;2.80;;;;;;;;;;4945769;28;20074;-75
2023/06/07 02:09:50;;;;;;;2.80;2.70;;;;;;;;;;4944820;28;20039;-76
2023/06/07 02:12:19;;;;;;;3.05;2.75;;;;;;;;;;4944767;28;20179;-75
2023/06/07 02:14:52;;;;;;;3.47;2.67;;;;;;;;;;4944588;28;20047;-75
2023/06/07 02:17:20;;;;;;;2.30;2.15;;;;;;;;;;4945187;28;20093;-75
2023/06/07 02:19:47;;;;;;;3.22;3.03;;;;;;;;;;5318021;23;20043;-78
2023/06/07 02:22:15;;;;;;;2.88;2.60;;;;;;;;;;4946174;28;20122;-77
2023/06/07 02:24:42;;;;;;;2.72;2.55;;;;;;;;;;4954545;28;20039;-76
2023/06/07 02:27:10;;;;;;;2.90;2.70;;;;;;;;;;4958430;28;20553;-74
2023/06/07 02:29:38;;;;;;;4.13;2.45;;;;;;;;;;4944758;28;20052;-77
2023/06/07 02:32:06;;;;;;;2.88;2.67;;;;;;;;;;4947023;28;20122;-76
2023/06/07 02:34:33;;;;;;;2.70;2.50;;;;;;;;;;4946500;28;20101;-76
2023/06/07 02:37:01;;;;;;;3.22;2.92;;;;;;;;;;4947780;28;20051;-76
2023/06/07 02:39:29;;;;;;;2.78;2.58;;;;;;;;;;4948306;28;20047;-76
2023/06/07 02:41:57;;;;;;;3.30;3.10;;;;;;;;;;4942057;28;20044;-75
2023/06/07 02:44:25;;;;;;;2.92;2.63;;;;;;;;;;4941855;28;20039;-78
2023/06/07 02:46:52;;;;;;;3.28;2.65;;;;;;;;;;4947200;28;20046;-77
2023/06/07 02:49:20;;;;;;;3.30;3.00;;;;;;;;;;4950199;28;20059;-76
2023/06/07 02:51:47;;;;;;;3.78;3.17;;;;;;;;;;4945253;28;20042;-76
2023/06/07 02:54:19;;;;;;;5.60;2.67;;;;;;;;;;4947296;28;20055;-77
2023/06/07 02:56:46;;;;;;;3.60;3.30;;;;;;;;;;4952642;28;20091;-76
2023/06/07 02:59:14;;;;;;;4.07;3.70;;;;;;;;;;4949548;28;20048;-77
2023/06/07 03:01:44;;;;;;;3.13;2.92;;;;;;;;;;4944777;28;20530;-75
2023/06/07 03:04:12;;;;;;;4.07;3.10;;;;;;;;;;4945853;28;20125;-76
2023/06/07 03:06:41;;;;;;;3.13;2.92;;;;;;;;;;4945865;28;20047;-75
2023/06/07 03:09:24;;;;;;;3.50;3.25;;;;;;;;;;4946829;28;20043;-75
2023/06/07 03:11:52;;;;;;;3.20;3.00;;;;;;;;;;4947773;28;20043;-77
2023/06/07 03:14:23;;;;;;;3.58;3.38;;;;;;;;;;4947281;28;20122;-76
2023/06/07 03:16:52;;;;;;;3.50;3.25;;;;;;;;;;4949440;28;20102;-75
2023/06/07 03:19:20;;;;;;;3.08;2.90;;;;;;;;;;4960348;28;20503;-76
2023/06/07 03:21:52;;;;;;;3.25;3.05;;;;;;;;;;4945627;28;20138;-76
2023/06/07 03:24:20;;;;;;;3.88;3.58;;;;;;;;;;4952524;28;20055;-77
2023/06/07 03:26:48;;;;;;;3.10;2.90;;;;;;;;;;4944309;28;20525;-76
2023/06/07 03:29:17;;;;;;;3.42;3.20;;;;;;;;;;4947774;28;20071;-75
2023/06/07 03:31:45;;;;;;;4.30;3.25;;;;;;;;;;4949214;28;20051;-77
2023/06/07 03:34:16;;;;;;;3.10;2.90;;;;;;;;;;4953146;28;20086;-75
2023/06/07 03:36:44;;;;;;;3.45;3.15;;;;;;;;;;4953776;28;20139;-76
2023/06/07 03:39:14;;;;;;;4.30;3.10;;;;;;;;;;4949755;28;20059;-76
2023/06/07 03:41:42;;;;;;;2.70;2.60;;;;;;;;;;4952293;28;20054;-76
2023/06/07 03:44:14;;;;;;;3.83;3.30;;;;;;;;;;4945925;28;20058;-76
2023/06/07 03:46:42;;;;;;;3.08;2.88;;;;;;;;;;4949567;28;20117;-77
2023/06/07 03:49:10;;;;;;;2.50;2.35;;;;;;;;;;4944849;28;20051;-76
2023/06/07 03:51:38;;;;;;;2.80;2.60;;;;;;;;;;4946930;28;20079;-78
2023/06/07 03:54:07;;;;;;;3.63;3.30;;;;;;;;;;4943966;28;20055;-77
2023/06/07 03:56:34;;;;;;;2.70;2.50;;;;;;;;;;4946027;28;20051;-76
2023/06/07 03:59:03;;;;;;;3.05;2.80;;;;;;;;;;4951326;28;20095;-77
2023/06/07 04:01:33;;;;;;;2.78;2.65;;;;;;;;;;4943543;28;20090;-76
2023/06/07 04:04:01;;;;;;;2.83;2.70;;;;;;;;;;4943435;28;20102;-78
2023/06/07 04:06:30;;;;;;;2.90;2.70;;;;;;;;;;4948790;28;20066;-76
2023/06/07 04:08:59;;;;;;;2.67;2.50;;;;;;;;;;4947120;28;20251;-78
2023/06/07 04:11:27;;;;;;;2.80;2.60;;;;;;;;;;4954225;28;20566;-76
2023/06/07 04:13:56;;;;;;;2.20;2.10;;;;;;;;;;4945226;28;20466;-77
2023/06/07 04:16:27;;;;;;;;;;;;;;;;;;4942465;28;20051;-77
2023/06/07 04:18:54;;;;;;;3.13;2.92;;;;;;;;;;4947892;28;19962;-76
2023/06/07 04:21:22;;;;;;;2.90;2.70;;;;;;;;;;4941809;28;20051;-75
2023/06/07 04:23:50;;;;;;;2.90;2.80;;;;;;;;;;4939382;28;20051;-76
2023/06/07 04:26:23;;;;;;;3.38;3.17;;;;;;;;;;4953303;28;20046;-76
2023/06/07 04:28:51;;;;;;;2.97;2.78;;;;;;;;;;4949852;28;20046;-76
2023/06/07 04:31:29;;;;;;;2.95;2.75;;;;;;;;;;4948643;28;20130;-76
2023/06/07 04:34:04;;;;;;;3.28;3.08;;;;;;;;;;4959600;28;20050;-75
2023/06/07 04:36:37;;;;;;;3.20;2.90;;;;;;;;;;4959894;28;20045;-75
2023/06/07 04:39:09;;;;;;;3.05;2.85;;;;;;;;;;4956263;28;20158;-76
2023/06/07 04:41:42;;;;;;;5.80;3.28;;;;;;;;;;4951418;28;20106;-77
2023/06/07 04:44:11;;;;;;;3.45;3.25;;;;;;;;;;4950418;28;20055;-78
2023/06/07 04:46:41;;;;;;;3.22;3.03;;;;;;;;;;4947017;28;20106;-77
2023/06/07 04:49:18;;;;;;;3.80;3.50;;;;;;;;;;4947249;28;20067;-77
2023/06/07 04:51:48;;;;;;;2.88;2.67;;;;;;;;;;4948455;28;20039;-76
2023/06/07 04:54:17;;;;;;;3.47;3.27;;;;;;;;;;4949760;28;20039;-75
2023/06/07 04:56:52;;;;;;;3.28;3.08;;;;;;;;;;4952445;28;20299;-76
2023/06/07 04:59:22;;;;;;;6.22;3.80;;;;;;;;;;4955130;28;20141;-75
2023/06/07 05:01:51;;;;;;;3.67;3.30;;;;;;;;;;4946794;28;20146;-75
2023/06/07 05:04:20;;;;;;;4.10;3.08;;;;;;;;;;4944232;28;20051;-78
2023/06/07 05:06:58;;;;;;;2.97;2.78;;;;;;;;;;4948460;28;20047;-75
2023/06/07 05:09:29;;;;;;;3.20;3.00;;;;;;;;;;4945068;28;20549;-77
2023/06/07 05:12:00;;;;;;;3.13;2.92;;;;;;;;;;4952128;28;20071;-78
2023/06/07 05:14:27;;;;;;;3.95;3.65;;;;;;;;;;4962474;28;20130;-76
2023/06/07 05:16:56;;;;;;;3.30;3.10;;;;;;;;;;4945275;28;20237;-77
2023/06/07 05:19:25;;;;;;;4.28;3.90;;;;;;;;;;4948252;28;20057;-77
2023/06/07 05:21:53;;;;;;;3.00;2.80;;;;;;;;;;4940160;28;20055;-76
2023/06/07 05:24:21;;;;;;;3.03;2.88;;;;;;;;;;4948438;28;20152;-75
2023/06/07 05:26:51;;;;;;;4.03;3.33;;;;;;;;;;4950799;28;20074;-75
2023/06/07 05:29:19;;;;;;;3.85;3.30;;;;;;;;;;4952060;28;20039;-75
2023/06/07 05:31:47;;;;;;;3.53;3.25;;;;;;;;;;4948887;28;20520;-76
2023/06/07 05:34:14;;;;;;;3.45;3.20;;;;;;;;;;4946415;28;20047;-77
2023/06/07 05:36:43;;;;;;;3.20;2.80;;;;;;;;;;4943096;28;20162;-78
2023/06/07 05:39:12;;;;;;;3.53;3.25;;;;;;;;;;4951097;28;20051;-76
2023/06/07 05:41:39;;;;;;;3.17;2.97;;;;;;;;;;4949036;28;20130;-75
2023/06/07 05:44:07;;;;;;;4.40;3.55;;;;;;;;;;4948670;28;20059;-75
2023/06/07 05:46:34;;;;;;;3.70;3.50;;;;;;;;;;4948925;28;20109;-77
2023/06/07 05:49:03;;;;;;;3.30;3.10;;;;;;;;;;4947388;28;20043;-76
2023/06/07 05:51:31;;;;;;;3.47;3.28;;;;;;;;;;4943600;28;20815;-76
2023/06/07 05:53:58;;;;;;;3.65;3.35;;;;;;;;;;4948421;28;20051;-76
2023/06/07 05:56:27;;;;;;;3.35;3.08;;;;;;;;;;4952754;28;20074;-77
2023/06/07 05:58:55;;;;;;;4.15;3.85;;;;;;;;;;4964403;28;20058;-77
2023/06/07 06:01:22;;;;;;;4.43;4.13;;;;;;;;;;4955804;28;20058;-75
2023/06/07 06:03:50;;;;;;;3.78;3.47;;;;;;;;;;4944285;28;20121;-78
2023/06/07 06:06:19;;;;;;;4.30;3.55;;;;;;;;;;4947543;28;20047;-75
2023/06/07 06:08:50;;;;;;;3.53;3.33;;;;;;;;;;4952422;28;20054;-78
2023/06/07 06:11:18;;;;;;;3.70;3.50;;;;;;;;;;4950317;28;20168;-76
2023/06/07 06:13:48;;;;;;;4.00;3.70;;;;;;;;;;4946428;28;20043;-77
2023/06/07 06:16:15;;;;;;;3.45;3.25;;;;;;;;;;4948091;28;20059;-76
2023/06/07 06:18:43;;;;;;;4.38;4.07;;;;;;;;;;4945230;28;20039;-77
2023/06/07 06:21:10;;;;;;;4.22;3.92;;;;;;;;;;4954372;28;20066;-75
2023/06/07 06:23:38;;;;;;;4.70;4.30;;;;;;;;;;4946563;28;20043;-76
2023/06/07 06:26:05;;;;;;;3.35;3.15;;;;;;;;;;4947565;28;20083;-77
2023/06/07 06:28:33;;;;;;;3.53;3.25;;;;;;;;;;4944448;28;20063;-76
2023/06/07 06:31:03;;;;;;;3.53;3.22;;;;;;;;;;4944035;28;20130;-76
2023/06/07 06:33:30;;;;;;;3.40;3.20;;;;;;;;;;4948172;28;20050;-77
2023/06/07 06:35:59;;;;;;;3.80;3.40;;;;;;;;;;4946739;28;20047;-78
2023/06/07 06:38:27;;;;;;;2.80;2.70;;;;;;;;;;4948415;28;20406;-77
2023/06/07 06:40:55;;;;;;;2.83;2.60;;;;;;;;;;4943476;28;20059;-76
2023/06/07 06:43:22;;;;;;;3.63;3.33;;;;;;;;;;4954860;28;20065;-75
2023/06/07 06:45:56;;;;;;;3.35;3.15;;;;;;;;;;4947257;28;20497;-76
2023/06/07 06:48:23;;;;;;;3.55;3.35;;;;;;;;;;4942828;28;20130;-77
2023/06/07 06:50:51;;;;;;;3.30;3.10;;;;;;;;;;4945535;28;20054;-77
2023/06/07 06:53:19;;;;;;;4.43;3.17;;;;;;;;;;4946431;28;20114;-78
2023/06/07 06:55:46;;;;;;;4.00;3.70;;;;;;;;;;4944673;28;20398;-77
2023/06/07 06:58:13;;;;;;;3.60;3.40;;;;;;;;;;4942505;28;20058;-76
2023/06/07 07:00:41;;;;;;;3.30;3.10;;;;;;;;;;4943061;28;20414;-77
2023/06/07 07:03:09;;;;;;;3.40;3.20;;;;;;;;;;4946668;28;20051;-77
2023/06/07 07:05:36;;;;;;;3.15;2.95;;;;;;;;;;4946430;28;20050;-76
2023/06/07 07:08:04;;;;;;;3.88;3.67;;;;;;;;;;4946983;28;20047;-76
2023/06/07 07:10:31;;;;;;;3.20;3.00;;;;;;;;;;4945983;28;20047;-77
2023/06/07 07:12:59;;;;;;;3.10;2.90;;;;;;;;;;4946294;28;20049;-76
2023/06/07 07:15:30;;;;;;;3.78;3.47;;;;;;;;;;4944435;28;20043;-75
2023/06/07 07:17:58;;;;;;;3.05;2.85;;;;;;;;;;4944884;28;20051;-75
2023/06/07 07:20:25;;;;;;;3.45;3.25;;;;;;;;;;4944944;28;20577;-76
2023/06/07 07:22:53;;;;;;;3.20;3.00;;;;;;;;;;4945322;28;20058;-77
2023/06/07 07:25:20;;;;;;;3.22;3.03;;;;;;;;;;4947042;28;20588;-76
2023/06/07 07:27:48;;;;;;;3.85;3.55;;;;;;;;;;4954075;28;20489;-78
2023/06/07 07:30:15;;;;;;;3.85;3.65;;;;;;;;;;4947295;28;20051;-76
2023/06/07 07:32:43;;;;;;;4.28;3.90;;;;;;;;;;4946111;28;20062;-76
2023/06/07 07:35:11;;;;;;;4.05;3.75;;;;;;;;;;4946255;28;20067;-76
2023/06/07 07:37:39;;;;;;;4.45;4.15;;;;;;;;;;4947174;28;20134;-75
2023/06/07 07:40:12;;;;;;;3.30;3.10;;;;;;;;;;4938806;28;20528;-76
2023/06/07 07:42:40;;;;;;;3.22;3.03;;;;;;;;;;4938902;28;20086;-76
2023/06/07 07:45:08;;;;;;;3.40;3.10;;;;;;;;;;4938640;28;20091;-76
2023/06/07 07:47:36;;;;;;;3.50;3.30;;;;;;;;;;4941365;28;21346;-76
2023/06/07 07:50:05;;;;;;;3.88;3.67;;;;;;;;;;4937093;28;20055;-76
2023/06/07 07:52:33;;;;;;;3.05;2.92;;;;;;;;;;4944809;28;20075;-78
2023/06/07 07:55:02;;;;;;;4.10;3.80;;;;;;;;;;4944520;28;20075;-76
2023/06/07 07:57:30;;;;;;;3.47;3.28;;;;;;;;;;4943926;28;20152;-76
2023/06/07 07:59:58;;;;;;;3.38;3.17;;;;;;;;;;4945063;28;20074;-76
2023/06/07 08:02:25;;;;;;;3.45;3.25;;;;;;;;;;4950162;28;20670;-78
2023/06/07 08:04:53;;;;;;;3.00;2.80;;;;;;;;;;4948191;28;20062;-78
2023/06/07 08:07:21;;;;;;;4.07;3.00;;;;;;;;;;4944075;28;20046;-77
2023/06/07 08:09:49;;;;;;;3.50;3.30;;;;;;;;;;4950655;28;20086;-77
2023/06/07 08:12:16;;;;;;;3.10;2.90;;;;;;;;;;4949218;28;20508;-77
2023/06/07 08:14:44;;;;;;;3.08;2.80;;;;;;;;;;4951978;28;20437;-76
2023/06/07 08:17:11;;;;;;;2.60;2.50;;;;;;;;;;4958082;28;20051;-76
2023/06/07 08:22:37;;;;;;;3.10;2.90;;;;;;;;;;4953932;28;20236;-75
2023/06/07 08:25:05;;;;;;;3.72;3.30;;;;;;;;;;4950979;28;20493;-76
2023/06/07 08:27:33;;;;;;;2.80;2.60;;;;;;;;;;4951178;28;20140;-76
2023/06/07 08:30:00;;;;;;;3.08;2.88;;;;;;;;;;4955552;28;20271;-76
2023/06/07 08:32:32;;;;;;;3.15;2.95;;;;;;;;;;4956068;28;20532;-76
2023/06/07 08:34:59;;;;;;;2.92;2.72;;;;;;;;;;4948681;28;20126;-76
2023/06/07 08:37:27;;;;;;;2.75;2.65;;;;;;;;;;4948840;28;20517;-76
2023/06/07 08:39:54;;;;;;;2.90;2.72;;;;;;;;;;4949575;28;20420;-76
2023/06/07 08:42:22;;;;;;;3.40;3.20;;;;;;;;;;4950493;28;20051;-76
2023/06/07 08:44:50;;;;;;;3.00;2.80;;;;;;;;;;4959594;28;20051;-76
2023/06/07 08:47:18;;;;;;;3.00;2.80;;;;;;;;;;4951894;28;20085;-77
2023/06/07 08:49:47;;;;;;;2.75;2.55;;;;;;;;;;4954771;28;20118;-76
2023/06/07 08:52:15;;;;;;;2.53;2.42;;;;;;;;;;4955455;28;20461;-76
2023/06/07 08:54:44;;;;;;;2.78;2.67;;;;;;;;;;4947903;28;20073;-77
2023/06/07 08:57:15;;;;;;;2.75;2.60;;;;;;;;;;4956686;28;20046;-76
2023/06/07 08:59:48;;;;;;;2.72;2.53;;;;;;;;;;4957338;28;20062;-77
2023/06/07 09:02:16;;;;;;;2.67;2.58;;;;;;;;;;4958203;28;20048;-77
2023/06/07 09:04:44;;;;;;;2.50;2.40;;;;;;;;;;4952203;28;20518;-77
2023/06/07 09:07:12;;;;;;;2.40;2.20;;;;;;;;;;4943626;28;20051;-77
2023/06/07 09:09:41;;;;;;;2.88;2.78;;;;;;;;;;4948755;28;20575;-77
2023/06/07 09:12:08;;;;;;;2.70;2.60;;;;;;;;;;4950611;28;20051;-78
2023/06/07 09:14:36;;;;;;;3.75;3.45;;;;;;;;;;4956008;28;20051;-78
2023/06/07 09:17:04;;;;;;;2.70;2.60;;;;;;;;;;4947264;28;20104;-77
2023/06/07 09:19:39;;;;;;;2.40;2.30;;;;;;;;;;4949131;28;20047;-77
2023/06/07 09:22:07;;;;;;;2.67;2.58;;;;;;;;;;4955551;28;20391;-76
2023/06/07 09:24:35;;;;;;;3.13;2.92;;;;;;;;;;4954090;28;20548;-77
2023/06/07 09:27:03;;;;;;;2.90;2.70;;;;;;;;;;4946145;28;20494;-77
2023/06/07 09:29:38;;;;;;;2.80;2.70;;;;;;;;;;4944382;28;20047;-77
2023/06/07 09:32:18;;;;;;;2.53;2.40;;;;;;;;;;4936168;28;20053;-77
2023/06/07 09:34:49;;;;;;;2.10;2.00;;;;;;;;;;4944504;28;20490;-78
2023/06/07 09:37:21;;;;;;;2.45;2.35;;;;;;;;;;4955080;28;20409;-79
2023/06/07 09:39:53;;;;;;;2.60;2.40;;;;;;;;;;4949270;28;20048;-77
2023/06/07 09:42:21;;;;;;;3.13;2.70;;;;;;;;;;4948979;28;20051;-77
2023/06/07 09:44:49;;;;;;;2.97;2.78;;;;;;;;;;4949646;28;20071;-77
2023/06/07 09:47:21;;;;;;;2.97;2.88;;;;;;;;;;4937608;28;20058;-76
2023/06/07 09:49:54;;;;;;;2.88;2.78;;;;;;;;;;4934461;28;20418;-76
2023/06/07 09:52:22;;;;;;;3.15;2.95;;;;;;;;;;4930514;28;20614;-76
2023/06/07 09:54:49;;;;;;;3.40;3.20;;;;;;;;;;4939122;28;20555;-76
2023/06/07 09:57:26;;;;;;;2.42;2.30;;;;;;;;;;4947520;28;20122;-76
2023/06/07 09:59:58;;;;;;;2.65;2.55;;;;;;;;;;4954045;28;20106;-76
2023/06/07 10:02:26;;;;;;;2.30;2.20;;;;;;;;;;4955303;28;20036;-77
2023/06/07 10:04:56;;;;;;;3.22;3.03;;;;;;;;;;4948016;28;20087;-77
2023/06/07 10:07:33;;;;;;;3.00;2.90;;;;;;;;;;4943251;29;20570;-76
2023/06/07 10:10:01;;;;;;;2.90;2.70;;;;;;;;;;4949310;28;20054;-76
2023/06/07 10:12:31;;;;;;;2.38;2.28;;;;;;;;;;4940920;29;20050;-76
2023/06/07 10:15:03;;;;;;;3.00;2.80;;;;;;;;;;4949990;28;20047;-77
2023/06/07 10:17:40;;;;;;;3.28;2.90;;;;;;;;;;4949837;28;20042;-77
2023/06/07 10:20:11;;;;;;;3.53;3.25;;;;;;;;;;4945012;28;20067;-76
2023/06/07 10:22:39;;;;;;;;;;;;;;;;;;4954082;28;20075;-76
2023/06/07 10:25:16;;;;;;;2.30;2.20;;;;;;;;;;4949585;28;20352;-76
2023/06/07 10:27:52;;;;;;;2.38;2.28;;;;;;;;;;4949688;28;20053;-77
2023/06/07 10:30:20;;;;;;;3.03;2.83;;;;;;;;;;4949306;28;20043;-77
2023/06/07 10:32:48;;;;;;;2.90;2.80;;;;;;;;;;4942138;28;20457;-76
2023/06/07 10:35:17;;;;;;;2.53;2.40;;;;;;;;;;4949511;28;20047;-76
2023/06/07 10:37:44;;;;;;;2.35;2.25;;;;;;;;;;4949677;28;20113;-76
2023/06/07 10:40:14;;;;;;;2.10;2.00;;;;;;;;;;4948956;28;20059;-76
2023/06/07 10:42:44;;;;;;;2.08;1.98;;;;;;;;;;4949302;29;20413;-77
2023/06/07 10:45:15;;;;;;;1.85;1.75;;;;;;;;;;4947860;29;20142;-77
2023/06/07 10:47:43;;;;;;;2.15;2.05;;;;;;;;;;4949730;28;20138;-77
2023/06/07 10:50:30;;;;;;;2.08;2.00;;;;;;;;;;4949627;28;20081;-77
2023/06/07 10:52:59;;;;;;;2.00;1.90;;;;;;;;;;4949586;28;20043;-78
2023/06/07 10:55:31;;;;;;;2.03;1.92;;;;;;;;;;4949137;29;20102;-77
2023/06/07 10:57:59;;;;;;;1.90;1.80;;;;;;;;;;4949417;28;20098;-77
2023/06/07 11:00:31;;;;;;;1.60;1.60;;;;;;;;;;4948801;28;20057;-76
2023/06/07 11:03:19;;;;;;;2.17;2.08;;;;;;;;;;4948826;28;20051;-77
2023/06/07 11:05:53;;;;;;;1.33;1.33;;;;;;;;;;4949383;28;20441;-76
2023/06/07 11:08:26;;;;;;;1.10;1.10;;;;;;;;;;4948990;29;20053;-76
2023/06/07 11:11:00;;;;;;;1.38;1.38;;;;;;;;;;4948784;28;20480;-76
2023/06/07 11:13:44;;;;;;;1.60;1.50;;;;;;;;;;4945684;28;20127;-76
2023/06/07 11:16:32;;;;;;;1.40;1.40;;;;;;;;;;4946281;29;20055;-77
2023/06/07 11:19:05;;;;;;;2.58;1.60;;;;;;;;;;4951599;28;20075;-76
2023/06/07 11:21:51;;;;;;;1.50;1.40;;;;;;;;;;4948438;28;20524;-76
2023/06/07 11:24:19;;;;;;;1.75;1.27;;;;;;;;;;4940879;28;20062;-77
2023/06/07 11:26:47;;;;;;;1.80;1.70;;;;;;;;;;4948081;28;20070;-76
2023/06/07 11:29:18;;;;;;;1.52;1.45;;;;;;;;;;4952284;28;20134;-76
2023/06/07 11:32:02;;;;;;;1.73;1.63;;;;;;;;;;4955099;28;20043;-77
2023/06/07 11:34:31;;;;;;;1.70;1.60;;;;;;;;;;4934100;28;20808;-77
2023/06/07 11:37:08;;;;;;;1.50;1.50;;;;;;;;;;4953790;28;20051;-77
2023/06/07 11:39:36;;;;;;;2.10;2.00;;;;;;;;;;4945009;28;20527;-76
2023/06/07 11:42:04;;;;;;;1.60;1.50;;;;;;;;;;4945081;28;20075;-76
2023/06/07 11:44:32;;;;;;;1.50;1.50;;;;;;;;;;4944316;29;20054;-76
2023/06/07 11:47:02;;;;;;;1.73;1.73;;;;;;;;;;4948116;28;20490;-77
2023/06/07 11:49:31;;;;;;;1.60;1.50;;;;;;;;;;4943974;28;20517;-77
2023/06/07 11:51:59;;;;;;;1.50;1.40;;;;;;;;;;4947850;28;20129;-78
2023/06/07 11:54:26;;;;;;;2.10;1.95;;;;;;;;;;4947122;28;20054;-76
2023/06/07 11:56:54;;;;;;;1.40;1.35;;;;;;;;;;4948370;28;20054;-76
2023/06/07 11:59:22;;;;;;;1.42;1.42;;;;;;;;;;4947560;28;20429;-76
2023/06/07 12:01:55;;;;;;;1.20;1.20;;;;;;;;;;4950561;28;20078;-76
2023/06/07 12:04:24;;;;;;;1.25;1.25;;;;;;;;;;4947496;28;20138;-77
2023/06/07 12:06:52;;;;;;;2.58;1.50;;;;;;;;;;4947801;28;20074;-77
2023/06/07 12:09:19;;;;;;;1.85;1.75;;;;;;;;;;4947590;28;20039;-76
2023/06/07 12:11:47;;;;;;;1.60;1.50;;;;;;;;;;4948255;28;20142;-77
2023/06/07 12:14:34;;;;;;;1.85;1.75;;;;;;;;;;4946401;28;20110;-77
2023/06/07 12:17:01;;;;;;;1.90;1.80;;;;;;;;;;4940447;28;20043;-77
2023/06/07 12:19:29;;;;;;;2.10;2.00;;;;;;;;;;4941100;28;20425;-78
2023/06/07 12:22:03;;;;;;;1.95;1.85;;;;;;;;;;4944007;28;20521;-77
2023/06/07 12:24:31;;;;;;;1.60;1.50;;;;;;;;;;4946167;28;20368;-77
2023/06/07 12:27:03;;;;;;;1.55;1.55;;;;;;;;;;4947000;28;20047;-78
2023/06/07 12:29:31;;;;;;;1.90;1.80;;;;;;;;;;4944865;29;20058;-77
2023/06/07 12:32:01;;;;;;;1.83;1.73;;;;;;;;;;4946470;28;20135;-77
2023/06/07 12:34:30;;;;;;;1.80;1.70;;;;;;;;;;4946249;29;20701;-78
2023/06/07 12:36:58;;;;;;;2.38;2.28;;;;;;;;;;4944994;29;20059;-74
2023/06/07 12:39:29;;;;;;;1.50;1.50;;;;;;;;;;4945496;28;20047;-78
2023/06/07 12:41:57;;;;;;;1.50;1.50;;;;;;;;;;4946190;28;20075;-77
2023/06/07 12:44:24;;;;;;;1.50;1.50;;;;;;;;;;4946021;28;20441;-79
2023/06/07 12:46:52;;;;;;;1.20;1.20;;;;;;;;;;4948147;28;20070;-78
2023/06/07 12:49:31;;;;;;;1.60;1.50;;;;;;;;;;4949603;28;20043;-78
2023/06/07 12:51:58;;;;;;;1.50;1.40;;;;;;;;;;4949809;28;20047;-78
2023/06/07 12:54:26;;;;;;;1.67;1.60;;;;;;;;;;4949309;28;20051;-78
2023/06/07 12:56:54;;;;;;;1.20;1.20;;;;;;;;;;4946258;28;20051;-78
2023/06/07 12:59:21;;;;;;;1.20;1.20;;;;;;;;;;4948948;28;20063;-78
2023/06/07 13:01:49;;;;;;;1.70;1.60;;;;;;;;;;4947910;28;20592;-77
2023/06/07 13:04:16;;;;;;;1.55;1.42;;;;;;;;;;4949724;28;20051;-77
2023/06/07 13:06:44;;;;;;;1.40;1.40;;;;;;;;;;4950424;28;20062;-77
2023/06/07 13:09:12;;;;;;;1.40;1.40;;;;;;;;;;4948478;28;20215;-78
2023/06/07 13:11:42;;;;;;;1.27;1.27;;;;;;;;;;4944579;29;20047;-77
2023/06/07 13:14:14;;;;;;;1.38;1.38;;;;;;;;;;4942924;28;20763;-77
2023/06/07 13:16:44;;;;;;;1.20;1.20;;;;;;;;;;4944862;28;20039;-78
2023/06/07 13:19:12;;;;;;;1.10;1.10;;;;;;;;;;4947726;28;20130;-78
2023/06/07 13:21:40;;;;;;;1.27;1.20;;;;;;;;;;4952375;28;20101;-77
2023/06/07 13:24:07;;;;;;;1.15;1.10;;;;;;;;;;4949006;28;20043;-78
2023/06/07 13:26:35;;;;;;;1.40;1.40;;;;;;;;;;4950140;28;20760;-78
2023/06/07 13:29:02;;;;;;;1.23;1.23;;;;;;;;;;4950280;28;20126;-77
2023/06/07 13:31:30;;;;;;;1.10;1.10;;;;;;;;;;4949588;28;20047;-78
2023/06/07 13:33:57;;;;;;;0.98;0.98;;;;;;;;;;4949441;28;20044;-78
2023/06/07 13:36:25;;;;;;;0.88;0.88;;;;;;;;;;4949193;28;20047;-78
2023/06/07 13:38:53;;;;;;;1.00;1.00;;;;;;;;;;4947766;28;20113;-77
2023/06/07 13:41:22;;;;;;;1.00;1.00;;;;;;;;;;4945185;28;20055;-77
2023/06/07 13:43:49;;;;;;;1.40;1.30;;;;;;;;;;4945935;28;20149;-77
2023/06/07 13:46:37;;;;;;;1.20;1.20;;;;;;;;;;4950049;28;20039;-77
2023/06/07 13:49:05;;;;;;;2.22;1.50;;;;;;;;;;4948496;28;20070;-77
2023/06/07 13:51:34;;;;;;;1.15;1.15;;;;;;;;;;4954131;28;20413;-77
2023/06/07 13:54:01;;;;;;;1.23;1.23;;;;;;;;;;4953694;28;20577;-76
2023/06/07 13:56:29;;;;;;;1.20;1.20;;;;;;;;;;4946623;28;20094;-77
2023/06/07 13:58:56;;;;;;;1.17;1.17;;;;;;;;;;4945622;28;20138;-77
2023/06/07 14:01:26;;;;;;;1.20;1.20;;;;;;;;;;4939253;28;20194;-77
2023/06/07 14:03:55;;;;;;;1.05;1.02;;;;;;;;;;4951532;28;20055;-77
2023/06/07 14:06:23;;;;;;;1.00;1.00;;;;;;;;;;4948999;28;20062;-77
2023/06/07 14:08:51;;;;;;;1.38;1.35;;;;;;;;;;4947743;28;20054;-77
2023/06/07 14:11:21;;;;;;;1.20;1.20;;;;;;;;;;4945352;28;20050;-78
2023/06/07 14:13:48;;;;;;;0.93;0.93;;;;;;;;;;4944864;28;20062;-78
2023/06/07 14:16:16;;;;;;;0.77;0.77;;;;;;;;;;4942378;28;20047;-77
2023/06/07 14:18:43;;;;;;;1.23;1.23;;;;;;;;;;4944079;28;20062;-77
2023/06/07 14:21:12;;;;;;;1.00;1.00;;;;;;;;;;4941023;28;20091;-77
2023/06/07 14:23:41;;;;;;;0.90;0.90;;;;;;;;;;4946016;28;20065;-77
2023/06/07 14:26:09;;;;;;;1.33;1.33;;;;;;;;;;4947528;28;20067;-77
2023/06/07 14:28:37;;;;;;;1.10;1.10;;;;;;;;;;4949012;28;20446;-77
2023/06/07 14:31:04;;;;;;;1.15;1.15;;;;;;;;;;4947807;28;20082;-77
2023/06/07 14:33:32;;;;;;;2.65;1.30;;;;;;;;;;4952064;28;20043;-77
2023/06/07 14:35:59;;;;;;;1.20;1.10;;;;;;;;;;4950192;28;20074;-77
2023/06/07 14:38:27;;;;;;;1.00;1.00;;;;;;;;;;4948389;28;20046;-77
2023/06/07 14:40:54;;;;;;;1.20;1.20;;;;;;;;;;4949155;28;20071;-76
2023/06/07 14:43:22;;;;;;;1.20;1.20;;;;;;;;;;4949479;28;20055;-76
2023/06/07 14:45:49;;;;;;;1.42;1.33;;;;;;;;;;4943102;28;20043;-77
2023/06/07 14:48:17;;;;;;;1.02;1.02;;;;;;;;;;4946384;28;20077;-76
2023/06/07 14:50:44;;;;;;;1.13;1.13;;;;;;;;;;4948865;28;20039;-76
2023/06/07 14:53:12;;;;;;;1.20;1.20;;;;;;;;;;4947318;28;20274;-76
2023/06/07 14:55:40;;;;;;;1.35;1.35;;;;;;;;;;4952937;28;20397;-76
2023/06/07 14:58:08;;;;;;;1.25;1.15;;;;;;;;;;4954617;28;20050;-76